Time;durP1;ratioP1;P1;durP2;ratioP2;P2;SDS_P1;SDS_P2;PMS_P1;PMS_P2;Temp;Humidity;BMP_temperature;BMP_pressure;BME280_temperature;BME280_humidity;BME280_pressure;Samples;Min_cycle;Max_cycle;Signal;HPM_P1;HPM_P2
2020/12/02 00:00:52;;;;;;;55.50;28.50;;;;;;;5.58;100.00;100736.25;5078615;28;20207;-30
2020/12/02 00:03:41;;;;;;;46.63;25.37;;;;;;;5.49;100.00;100733.50;5078578;28;20208;-31
2020/12/02 00:06:29;;;;;;;53.90;25.80;;;;;;;5.22;100.00;100736.38;5078427;28;20211;-31
2020/12/02 00:09:16;;;;;;;50.50;25.40;;;;;;;5.06;100.00;100735.19;5078908;28;20244;-30
2020/12/02 00:12:03;;;;;;;58.60;27.50;;;;;;;5.26;100.00;100732.16;5078935;28;20605;-30
2020/12/02 00:14:50;;;;;;;42.17;23.00;;;;;;;5.13;100.00;100723.38;5081276;28;20198;-30
2020/12/02 00:17:36;;;;;;;48.60;25.80;;;;;;;5.44;100.00;100735.09;5081098;28;20308;-31
2020/12/02 00:20:21;;;;;;;43.37;24.23;;;;;;;4.98;100.00;100734.19;5080160;28;20200;-30
2020/12/02 00:23:09;;;;;;;46.17;22.97;;;;;;;5.11;100.00;100725.03;5078733;28;20602;-32
2020/12/02 00:25:54;;;;;;;41.07;23.60;;;;;;;5.06;100.00;100732.63;5078330;28;20204;-30
2020/12/02 00:28:40;;;;;;;46.03;24.43;;;;;;;5.17;100.00;100731.16;5078654;28;20200;-31
2020/12/02 00:31:27;;;;;;;35.07;20.87;;;;;;;4.95;100.00;100730.69;5079102;28;20628;-30
2020/12/02 00:34:13;;;;;;;42.70;23.03;;;;;;;5.02;100.00;100728.25;5078871;28;20270;-31
2020/12/02 00:36:59;;;;;;;34.33;20.03;;;;;;;4.88;100.00;100737.34;5079462;28;20231;-30
2020/12/02 00:39:47;;;;;;;38.87;22.03;;;;;;;4.84;100.00;100736.41;5079868;28;20199;-30
2020/12/02 00:42:32;;;;;;;39.20;21.40;;;;;;;4.88;100.00;100737.34;5079472;28;20248;-31
2020/12/02 00:45:18;;;;;;;41.10;23.10;;;;;;;5.07;100.00;100734.34;5083360;28;20229;-30
2020/12/02 00:48:08;;;;;;;36.60;20.73;;;;;;;4.85;100.00;100732.16;5092802;28;20199;-30
2020/12/02 00:50:55;;;;;;;33.83;19.37;;;;;;;4.78;100.00;100732.88;5080625;28;20226;-30
2020/12/02 00:53:40;;;;;;;37.00;20.53;;;;;;;4.73;100.00;100735.34;5078505;28;20233;-30
2020/12/02 00:56:28;;;;;;;38.80;21.00;;;;;;;4.72;100.00;100732.72;5077849;28;20654;-30
2020/12/02 00:59:19;;;;;;;43.23;22.93;;;;;;;4.89;100.00;100730.53;5078218;28;20200;-31
2020/12/02 01:02:15;;;;;;;37.20;20.70;;;;;;;4.70;100.00;100729.28;5078137;28;20319;-30
2020/12/02 01:05:07;;;;;;;36.77;19.37;;;;;;;4.76;100.00;100734.53;5082057;28;20643;-30
2020/12/02 01:07:54;;;;;;;32.57;17.87;;;;;;;4.68;100.00;100736.91;5078704;28;20330;-31
2020/12/02 01:10:40;;;;;;;33.83;18.07;;;;;;;4.64;100.00;100736.81;5077499;28;20222;-30
2020/12/02 01:13:27;;;;;;;31.13;18.67;;;;;;;4.80;100.00;100733.75;5077741;28;20201;-30
2020/12/02 01:16:17;;;;;;;30.03;17.93;;;;;;;4.64;100.00;100729.13;5078150;28;20203;-30
2020/12/02 01:19:05;;;;;;;30.27;18.07;;;;;;;4.59;100.00;100730.75;5079156;28;20206;-30
2020/12/02 01:21:56;;;;;;;33.60;18.37;;;;;;;4.65;100.00;100726.59;5078822;28;20275;-30
2020/12/02 01:24:50;;;;;;;33.90;19.07;;;;;;;4.68;100.00;100729.22;5078450;28;20206;-30
2020/12/02 01:27:38;;;;;;;35.83;19.67;;;;;;;4.75;100.00;100728.56;5078206;28;20201;-30
2020/12/02 01:30:26;;;;;;;37.83;21.83;;;;;;;4.73;100.00;100726.78;5078145;28;20647;-30
2020/12/02 01:33:15;;;;;;;32.50;18.70;;;;;;;4.54;100.00;100722.06;5077985;28;20210;-30
2020/12/02 01:36:00;;;;;;;35.43;19.63;;;;;;;4.53;100.00;100728.03;5078511;28;20200;-30
2020/12/02 01:38:46;;;;;;;45.73;22.00;;;;;;;4.64;100.00;100730.00;5078301;28;20228;-30
2020/12/02 01:41:33;;;;;;;32.67;19.10;;;;;;;4.44;100.00;100721.84;5078731;28;20197;-30
2020/12/02 01:44:19;;;;;;;39.70;20.83;;;;;;;4.52;100.00;100723.72;5078474;28;20479;-30
2020/12/02 01:47:13;;;;;;;37.70;21.37;;;;;;;4.70;100.00;100721.59;5078066;28;20246;-30
2020/12/02 01:50:06;;;;;;;40.90;21.97;;;;;;;4.83;100.00;100726.13;5078048;28;20250;-30
2020/12/02 01:53:03;;;;;;;37.80;20.93;;;;;;;4.55;100.00;100723.81;5077608;28;20202;-30
2020/12/02 01:55:53;;;;;;;37.43;20.93;;;;;;;4.65;100.00;100711.22;5077260;28;20525;-30
2020/12/02 01:58:47;;;;;;;40.77;21.77;;;;;;;4.63;100.00;100717.13;5076540;28;20202;-29
2020/12/02 02:01:47;;;;;;;40.47;21.30;;;;;;;4.64;100.00;100712.06;5077038;28;20211;-30
2020/12/02 02:04:43;;;;;;;43.13;22.47;;;;;;;4.72;100.00;100718.22;5076900;28;20518;-30
2020/12/02 02:07:29;;;;;;;43.43;21.50;;;;;;;4.66;100.00;100712.97;5076969;28;20653;-30
2020/12/02 02:10:20;;;;;;;38.93;21.43;;;;;;;4.59;100.00;100716.22;5081020;28;20220;-30
2020/12/02 02:13:36;;;;;;;40.27;21.23;;;;;;;4.70;100.00;100719.88;5080988;28;20194;-30
2020/12/02 02:16:26;;;;;;;43.00;22.20;;;;;;;4.69;100.00;100712.16;5080784;28;20493;-30
2020/12/02 02:19:19;;;;;;;38.57;20.27;;;;;;;4.55;100.00;100714.44;5080853;28;20198;-30
2020/12/02 02:22:06;;;;;;;40.73;19.93;;;;;;;4.62;100.00;100706.03;5081015;28;20596;-30
2020/12/02 02:24:51;;;;;;;38.70;19.77;;;;;;;4.55;100.00;100703.31;5080591;28;20618;-30
2020/12/02 02:27:40;;;;;;;40.97;22.20;;;;;;;4.53;100.00;100708.41;5080703;28;20318;-29
2020/12/02 02:30:26;;;;;;;40.27;21.47;;;;;;;4.65;100.00;100695.84;5079593;28;20715;-30
2020/12/02 02:33:12;;;;;;;36.53;20.53;;;;;;;4.49;100.00;100696.34;5080233;28;20268;-30
2020/12/02 02:35:58;;;;;;;34.50;18.97;;;;;;;4.55;100.00;100699.06;5080508;28;20661;-30
2020/12/02 02:38:44;;;;;;;36.77;19.07;;;;;;;4.50;100.00;100691.25;5079839;28;20198;-30
2020/12/02 02:41:30;;;;;;;37.93;20.13;;;;;;;4.61;100.00;100694.03;5080298;28;20202;-30
2020/12/02 02:44:17;;;;;;;36.60;20.57;;;;;;;4.50;100.00;100696.38;5080388;28;20278;-30
2020/12/02 02:47:03;;;;;;;36.77;20.93;;;;;;;4.50;100.00;100698.06;5079944;28;20201;-30
2020/12/02 02:49:49;;;;;;;34.00;20.17;;;;;;;4.59;100.00;100702.56;5079975;28;20364;-30
2020/12/02 02:52:35;;;;;;;45.27;23.07;;;;;;;4.65;100.00;100697.56;5079431;28;20514;-30
2020/12/02 02:55:23;;;;;;;39.10;23.07;;;;;;;4.81;100.00;100697.03;5080430;28;20289;-30
2020/12/02 02:58:09;;;;;;;37.83;20.67;;;;;;;4.53;100.00;100695.59;5079539;28;20548;-30
2020/12/02 03:00:58;;;;;;;33.47;18.73;;;;;;;4.60;100.00;100694.88;5080371;28;20321;-30
2020/12/02 03:03:44;;;;;;;35.03;19.17;;;;;;;4.57;100.00;100696.53;5080230;28;20202;-30
2020/12/02 03:06:30;;;;;;;35.20;20.17;;;;;;;4.53;100.00;100694.72;5080153;28;20673;-30
2020/12/02 03:09:16;;;;;;;37.90;19.87;;;;;;;4.64;100.00;100680.44;5079620;28;20329;-30
2020/12/02 03:12:02;;;;;;;31.73;18.53;;;;;;;4.57;100.00;100693.97;5079619;28;20215;-30
2020/12/02 03:14:48;;;;;;;30.80;18.77;;;;;;;4.46;100.00;100694.56;5079619;28;20286;-30
2020/12/02 03:17:36;;;;;;;36.20;19.23;;;;;;;4.57;100.00;100689.72;5080001;28;20205;-30
2020/12/02 03:20:27;;;;;;;34.17;19.40;;;;;;;4.51;100.00;100689.56;5079109;28;20214;-30
2020/12/02 03:23:16;;;;;;;44.27;21.87;;;;;;;4.71;100.00;100692.56;5079515;28;20202;-30
2020/12/02 03:26:03;;;;;;;40.60;21.50;;;;;;;4.77;100.00;100685.88;5079518;28;20600;-30
2020/12/02 03:28:48;;;;;;;35.37;18.90;;;;;;;4.67;100.00;100683.94;5079613;28;20197;-30
2020/12/02 03:31:35;;;;;;;37.17;20.87;;;;;;;4.70;100.00;100689.13;5078825;28;20208;-30
2020/12/02 03:34:23;;;;;;;35.33;19.63;;;;;;;4.99;100.00;100684.66;5079746;28;20633;-30
2020/12/02 03:37:08;;;;;;;37.07;19.70;;;;;;;4.92;100.00;100685.34;5081565;28;20205;-29
2020/12/02 03:39:54;;;;;;;35.10;19.07;;;;;;;4.74;100.00;100687.50;5079108;28;20266;-30
2020/12/02 03:42:41;;;;;;;34.20;19.00;;;;;;;4.62;100.00;100682.97;5078801;28;20489;-30
2020/12/02 03:45:27;;;;;;;37.60;20.13;;;;;;;5.21;100.00;100675.66;5078223;28;20199;-30
2020/12/02 03:48:15;;;;;;;40.67;22.03;;;;;;;4.92;100.00;100680.22;5080527;28;20205;-30
2020/12/02 03:51:03;;;;;;;31.63;18.67;;;;;;;4.93;100.00;100676.81;5080365;28;20227;-31
2020/12/02 03:53:49;;;;;;;38.90;22.30;;;;;;;4.83;100.00;100674.88;5079139;28;20203;-29
2020/12/02 03:56:35;;;;;;;40.03;23.37;;;;;;;5.27;100.00;100675.78;5079029;28;20604;-30
2020/12/02 03:59:21;;;;;;;41.67;21.47;;;;;;;5.25;100.00;100674.00;5078945;28;20204;-30
2020/12/02 04:02:06;;;;;;;38.93;21.07;;;;;;;4.70;100.00;100667.78;5078229;28;20206;-30
2020/12/02 04:04:52;;;;;;;39.20;20.97;;;;;;;4.87;100.00;100663.88;5079182;28;20201;-30
2020/12/02 04:07:39;;;;;;;36.80;19.67;;;;;;;4.69;100.00;100663.47;5078175;28;20239;-30
2020/12/02 04:10:24;;;;;;;35.60;19.73;;;;;;;4.62;100.00;100670.16;5078651;28;20427;-30
2020/12/02 04:13:11;;;;;;;34.83;18.90;;;;;;;4.60;100.00;100660.69;5078881;28;20202;-30
2020/12/02 04:15:56;;;;;;;34.57;17.87;;;;;;;4.49;100.00;100665.59;5078356;28;20620;-30
2020/12/02 04:18:42;;;;;;;32.63;18.17;;;;;;;4.45;100.00;100663.81;5077899;28;20204;-31
2020/12/02 04:21:28;;;;;;;31.17;18.07;;;;;;;4.54;100.00;100656.34;5077368;28;20199;-31
2020/12/02 04:24:15;;;;;;;32.97;17.80;;;;;;;4.60;100.00;100656.44;5079874;28;20260;-30
2020/12/02 04:27:00;;;;;;;40.13;21.30;;;;;;;4.62;100.00;100653.91;5078853;28;20230;-30
2020/12/02 04:29:46;;;;;;;36.83;19.30;;;;;;;4.58;100.00;100659.84;5077776;28;20627;-30
2020/12/02 04:32:32;;;;;;;35.73;20.47;;;;;;;4.54;100.00;100652.91;5077814;28;20199;-30
2020/12/02 04:35:18;;;;;;;38.23;20.63;;;;;;;4.58;100.00;100658.13;5077875;28;20531;-31
2020/12/02 04:38:04;;;;;;;36.83;19.13;;;;;;;4.62;100.00;100654.78;5078334;28;20613;-30
2020/12/02 04:40:51;;;;;;;36.40;19.67;;;;;;;4.57;100.00;100658.09;5079111;28;20204;-31
2020/12/02 04:43:39;;;;;;;36.80;18.73;;;;;;;4.49;100.00;100657.94;5078886;28;20225;-31
2020/12/02 04:46:31;;;;;;;41.27;21.67;;;;;;;4.57;100.00;100661.53;5077876;28;20205;-30
2020/12/02 04:49:19;;;;;;;37.20;21.43;;;;;;;4.68;100.00;100654.94;5077787;28;20607;-30
2020/12/02 04:52:11;;;;;;;35.97;18.90;;;;;;;4.56;100.00;100664.94;5077395;28;20289;-30
2020/12/02 04:54:57;;;;;;;36.80;19.13;;;;;;;4.56;100.00;100657.25;5075117;28;20195;-30
2020/12/02 04:57:43;;;;;;;36.57;19.80;;;;;;;4.51;100.00;100656.25;5077280;28;20479;-30
2020/12/02 05:00:33;;;;;;;38.93;19.90;;;;;;;4.60;100.00;100653.88;5077946;28;20198;-29
2020/12/02 05:03:19;;;;;;;38.40;19.67;;;;;;;4.74;100.00;100654.19;5077536;28;20255;-30
2020/12/02 05:06:05;;;;;;;38.37;19.67;;;;;;;4.62;100.00;100662.47;5076830;28;20201;-30
2020/12/02 05:08:52;;;;;;;35.73;18.97;;;;;;;4.72;100.00;100666.97;5077704;28;20242;-30
2020/12/02 05:11:38;;;;;;;37.37;20.40;;;;;;;4.62;100.00;100664.16;5077458;28;20331;-30
2020/12/02 05:14:32;;;;;;;35.80;18.70;;;;;;;4.56;100.00;100657.25;5077719;28;20221;-30
2020/12/02 05:17:22;;;;;;;33.63;18.67;;;;;;;4.59;100.00;100649.63;5077186;28;20295;-31
2020/12/02 05:20:12;;;;;;;41.37;20.23;;;;;;;4.69;100.00;100660.91;5077754;28;20216;-30
2020/12/02 05:23:10;;;;;;;38.67;19.67;;;;;;;4.60;100.00;100664.13;5078586;28;20263;-31
2020/12/02 05:25:56;;;;;;;36.77;19.23;;;;;;;4.57;100.00;100648.72;5077006;28;20207;-30
2020/12/02 05:28:42;;;;;;;39.80;20.33;;;;;;;4.55;100.00;100652.09;5079948;28;20604;-30
2020/12/02 05:31:33;;;;;;;34.00;19.13;;;;;;;4.65;100.00;100644.59;5080005;28;20330;-30
2020/12/02 05:34:20;;;;;;;37.80;19.00;;;;;;;4.54;100.00;100643.53;5076808;28;20618;-30
2020/12/02 05:37:11;;;;;;;40.03;19.10;;;;;;;4.62;100.00;100648.81;5077046;28;20298;-30
2020/12/02 05:40:02;;;;;;;32.70;17.67;;;;;;;4.50;100.00;100644.28;5076754;28;20194;-29
2020/12/02 05:42:53;;;;;;;39.20;19.27;;;;;;;4.57;100.00;100646.16;5078332;28;20350;-30
2020/12/02 05:45:42;;;;;;;42.03;22.13;;;;;;;4.76;100.00;100655.97;5079764;28;20201;-30
2020/12/02 05:48:36;;;;;;;36.47;20.17;;;;;;;4.70;100.00;100648.13;5081503;28;20608;-31
2020/12/02 05:51:22;;;;;;;41.50;20.80;;;;;;;4.64;100.00;100649.69;5080623;28;20235;-30
2020/12/02 05:54:13;;;;;;;38.03;20.10;;;;;;;4.59;100.00;100643.63;5079672;28;20359;-30
2020/12/02 05:57:03;;;;;;;43.40;20.43;;;;;;;4.68;100.00;100643.81;5080474;28;20503;-30
2020/12/02 05:59:50;;;;;;;40.10;19.23;;;;;;;4.53;100.00;100643.50;5080711;28;20268;-30
2020/12/02 06:02:38;;;;;;;37.87;19.40;;;;;;;4.55;100.00;100640.13;5080819;28;20593;-30
2020/12/02 06:05:27;;;;;;;39.97;19.00;;;;;;;4.60;100.00;100635.94;5080215;28;20662;-30
2020/12/02 06:08:33;;;;;;;39.37;20.10;;;;;;;4.59;100.00;100633.38;5080334;28;20652;-30
2020/12/02 06:11:35;;;;;;;36.83;19.47;;;;;;;4.66;100.00;100635.22;5080626;28;20230;-31
2020/12/02 06:14:29;;;;;;;40.07;19.93;;;;;;;4.53;100.00;100639.25;5080314;28;20611;-30
2020/12/02 06:17:31;;;;;;;38.77;20.60;;;;;;;4.66;100.00;100630.09;5079023;28;20553;-30
2020/12/02 06:20:24;;;;;;;44.20;20.97;;;;;;;4.64;100.00;100640.31;5080859;28;20713;-30
2020/12/02 06:23:10;;;;;;;41.93;20.50;;;;;;;4.52;100.00;100636.63;5080147;28;20204;-31
2020/12/02 06:25:57;;;;;;;45.87;21.57;;;;;;;4.57;100.00;100629.94;5080065;28;20259;-31
2020/12/02 06:28:48;;;;;;;44.43;21.30;;;;;;;4.71;100.00;100634.50;5079773;28;20196;-30
2020/12/02 06:31:34;;;;;;;42.87;20.33;;;;;;;4.50;100.00;100626.34;5080471;28;20231;-30
2020/12/02 06:34:24;;;;;;;38.70;19.63;;;;;;;4.59;100.00;100628.25;5080774;28;20246;-31
2020/12/02 06:37:14;;;;;;;42.60;21.83;;;;;;;4.54;100.00;100632.41;5080268;28;20200;-30
2020/12/02 06:40:01;;;;;;;36.83;20.20;;;;;;;4.49;100.00;100638.31;5079656;28;20199;-30
2020/12/02 06:42:46;;;;;;;38.57;21.03;;;;;;;4.43;100.00;100627.91;5079826;28;20245;-30
2020/12/02 06:45:36;;;;;;;38.63;20.47;;;;;;;4.53;100.00;100629.00;5079557;28;20196;-30
2020/12/02 06:48:29;;;;;;;39.57;21.03;;;;;;;4.46;100.00;100627.97;5080498;28;20295;-30
2020/12/02 06:51:16;;;;;;;40.70;21.50;;;;;;;4.52;100.00;100631.50;5079922;28;20280;-31
2020/12/02 06:54:03;;;;;;;40.00;21.27;;;;;;;4.70;100.00;100630.22;5097833;28;20623;-30
2020/12/02 06:56:56;;;;;;;48.03;23.10;;;;;;;4.85;100.00;100637.34;5100407;28;20332;-31
2020/12/02 06:59:54;;;;;;;50.93;25.00;;;;;;;4.81;100.00;100621.03;5099833;28;20201;-31
2020/12/02 07:02:43;;;;;;;45.43;22.00;;;;;;;4.64;100.00;100621.53;5099580;28;20626;-30
2020/12/02 07:05:36;;;;;;;44.07;21.80;;;;;;;4.64;100.00;100611.28;5100821;28;20231;-30
2020/12/02 07:08:26;;;;;;;38.03;20.57;;;;;;;4.55;100.00;100613.66;5099862;28;20249;-30
2020/12/02 07:11:15;;;;;;;46.67;22.60;;;;;;;4.62;100.00;100612.94;5099953;28;20310;-30
2020/12/02 07:14:18;;;;;;;46.57;22.60;;;;;;;4.63;100.00;100617.22;5099340;28;20206;-30
2020/12/02 07:17:07;;;;;;;43.07;21.27;;;;;;;4.58;100.00;100618.84;5099997;28;20271;-31
2020/12/02 07:19:54;;;;;;;44.80;23.03;;;;;;;4.53;100.00;100615.31;5098939;28;20199;-31
2020/12/02 07:22:49;;;;;;;46.80;23.13;;;;;;;4.78;100.00;100607.31;5099345;28;20279;-30
2020/12/02 07:25:35;;;;;;;43.40;22.63;;;;;;;4.65;100.00;100618.13;5100207;28;20479;-31
2020/12/02 07:28:22;;;;;;;43.07;22.40;;;;;;;4.62;100.00;100620.63;5099839;28;20755;-31
2020/12/02 07:31:22;;;;;;;42.23;22.93;;;;;;;4.62;100.00;100625.75;5100676;28;20232;-30
2020/12/02 07:34:13;;;;;;;43.80;21.57;;;;;;;4.56;100.00;100612.81;5111138;28;20245;-31
2020/12/02 07:37:01;;;;;;;38.77;21.30;;;;;;;4.47;100.00;100614.34;5107403;28;20205;-30
2020/12/02 07:39:48;;;;;;;44.67;23.30;;;;;;;4.59;100.00;100618.88;5110969;28;20219;-30
2020/12/02 07:42:40;;;;;;;44.37;22.37;;;;;;;4.50;100.00;100619.53;5108496;28;20251;-32
2020/12/02 07:45:31;;;;;;;42.57;22.33;;;;;;;4.45;100.00;100623.69;5099112;28;20275;-30
2020/12/02 07:48:24;;;;;;;47.47;22.63;;;;;;;4.61;100.00;100614.63;5099477;28;20242;-30
2020/12/02 07:51:14;;;;;;;45.40;23.50;;;;;;;4.50;100.00;100609.28;5099177;28;20503;-31
2020/12/02 07:54:07;;;;;;;49.87;22.90;;;;;;;4.48;100.00;100610.09;5099020;28;20325;-30
2020/12/02 07:56:54;;;;;;;44.87;23.07;;;;;;;4.55;100.00;100606.84;5099638;28;20290;-30
2020/12/02 07:59:48;;;;;;;44.43;22.57;;;;;;;4.56;100.00;100602.56;5099225;28;20631;-30
2020/12/02 08:02:39;;;;;;;44.40;23.83;;;;;;;4.56;100.00;100605.13;5098827;28;20615;-30
2020/12/02 08:05:42;;;;;;;46.13;24.03;;;;;;;4.53;100.00;100608.50;5099067;28;20202;-31
2020/12/02 08:08:28;;;;;;;45.80;23.83;;;;;;;4.45;100.00;100602.34;5098670;28;20254;-31
2020/12/02 08:11:18;;;;;;;50.47;23.63;;;;;;;4.53;100.00;100607.63;5097784;28;20623;-30
2020/12/02 08:14:04;;;;;;;49.83;23.73;;;;;;;4.50;100.00;100598.19;5098112;28;20260;-30
2020/12/02 08:16:53;;;;;;;51.80;22.70;;;;;;;4.43;100.00;100597.19;5097550;28;20214;-30
2020/12/02 08:19:41;;;;;;;46.80;24.03;;;;;;;4.39;100.00;100589.41;5097717;28;20206;-30
2020/12/02 08:22:39;;;;;;;46.43;22.90;;;;;;;4.45;100.00;100592.94;5097926;28;20206;-30
2020/12/02 08:25:32;;;;;;;49.73;24.63;;;;;;;4.45;100.00;100592.94;5096989;28;20295;-31
2020/12/02 08:28:23;;;;;;;48.10;23.83;;;;;;;4.47;100.00;100591.28;5097525;28;20202;-30
2020/12/02 08:31:21;;;;;;;45.40;24.07;;;;;;;4.49;100.00;100591.34;5097668;28;20246;-30
2020/12/02 08:34:13;;;;;;;45.47;22.77;;;;;;;4.42;100.00;100592.88;5097450;28;20589;-31
2020/12/02 08:37:34;;;;;;;41.00;21.67;;;;;;;4.47;100.00;100587.88;5097994;28;20291;-31
2020/12/02 08:40:31;;;;;;;39.57;21.10;;;;;;;4.46;100.00;100584.44;5096962;28;20303;-31
2020/12/02 08:43:35;;;;;;;40.97;22.23;;;;;;;4.54;100.00;100584.63;5097963;28;20208;-30
2020/12/02 08:46:27;;;;;;;44.83;20.93;;;;;;;4.39;100.00;100577.47;5097482;28;20215;-30
2020/12/02 08:49:13;;;;;;;39.13;20.57;;;;;;;4.33;100.00;100579.91;5099333;28;20600;-30
2020/12/02 08:51:59;;;;;;;37.17;20.13;;;;;;;4.41;100.00;100583.47;5097231;28;20314;-30
2020/12/02 08:54:45;;;;;;;36.13;18.67;;;;;;;4.40;100.00;100581.75;5098192;28;20217;-30
2020/12/02 08:57:30;;;;;;;34.03;18.63;;;;;;;4.44;100.00;100575.00;5097335;28;20210;-31
2020/12/02 09:00:23;;;;;;;31.97;18.43;;;;;;;4.50;100.00;100578.56;5096869;28;20198;-30
2020/12/02 09:03:09;;;;;;;34.73;18.70;;;;;;;4.39;100.00;100574.91;5097759;28;20205;-30
2020/12/02 09:05:55;;;;;;;32.97;18.83;;;;;;;4.43;100.00;100575.81;5097783;28;20267;-31
2020/12/02 09:08:41;;;;;;;33.20;16.70;;;;;;;4.39;100.00;100580.03;5097077;28;20240;-30
2020/12/02 09:11:29;;;;;;;25.10;15.30;;;;;;;4.41;100.00;100577.47;5096791;28;20639;-30
2020/12/02 09:14:16;;;;;;;27.97;15.40;;;;;;;4.38;100.00;100572.31;5096748;28;20471;-30
2020/12/02 09:17:03;;;;;;;28.97;15.03;;;;;;;4.44;100.00;100578.41;5096874;28;20247;-30
2020/12/02 09:19:50;;;;;;;23.50;14.73;;;;;;;4.40;100.00;100571.50;5101308;28;20199;-30
2020/12/02 09:22:38;;;;;;;25.80;13.90;;;;;;;4.44;100.00;100559.63;5101595;28;20259;-30
2020/12/02 09:25:24;;;;;;;26.00;14.50;;;;;;;4.38;100.00;100562.09;5101127;28;20196;-30
2020/12/02 09:28:12;;;;;;;22.83;13.83;;;;;;;4.48;100.00;100557.16;5101444;28;20250;-30
2020/12/02 09:30:57;;;;;;;22.77;13.40;;;;;;;4.35;100.00;100551.78;5101818;28;20234;-30
2020/12/02 09:33:44;;;;;;;20.70;12.60;;;;;;;4.40;100.00;100551.00;5107358;28;20214;-31
2020/12/02 09:36:30;;;;;;;21.00;13.23;;;;;;;4.47;100.00;100546.88;5101208;28;20234;-30
2020/12/02 09:39:16;;;;;;;24.70;14.67;;;;;;;4.29;100.00;100532.00;5101440;28;20233;-29
2020/12/02 09:42:19;;;;;;;22.17;12.90;;;;;;;4.51;100.00;100525.63;5101202;28;20198;-30
2020/12/02 09:45:07;;;;;;;23.67;14.00;;;;;;;4.38;100.00;100532.22;5101119;28;20354;-30
2020/12/02 09:47:54;;;;;;;22.03;14.13;;;;;;;4.36;100.00;100528.75;5101143;28;20197;-30
2020/12/02 09:50:41;;;;;;;18.53;12.70;;;;;;;4.37;100.00;100525.38;5102312;28;20222;-30
2020/12/02 09:53:31;;;;;;;21.27;12.03;;;;;;;4.31;100.00;100530.34;5102263;28;20204;-30
2020/12/02 09:56:21;;;;;;;22.33;13.13;;;;;;;4.35;100.00;100527.03;5100177;28;20234;-30
2020/12/02 09:59:10;;;;;;;24.53;13.03;;;;;;;4.32;100.00;100519.28;5080558;28;20209;-30
2020/12/02 10:02:08;;;;;;;19.77;13.00;;;;;;;4.40;100.00;100519.41;5086295;28;20201;-30
2020/12/02 10:05:09;;;;;;;21.03;12.53;;;;;;;4.46;100.00;100512.72;5100635;28;20258;-30
2020/12/02 10:08:05;;;;;;;19.63;12.37;;;;;;;4.63;100.00;100504.50;5100116;28;20229;-30
2020/12/02 10:10:57;;;;;;;21.20;12.90;;;;;;;4.65;100.00;100505.41;5100931;28;20329;-31
2020/12/02 10:14:26;;;;;;;21.13;12.80;;;;;;;4.81;100.00;100500.59;5100938;28;20205;-30
2020/12/02 10:17:26;;;;;;;17.97;11.60;;;;;;;4.72;100.00;100492.75;5100944;28;20205;-30
2020/12/02 10:20:25;;;;;;;18.10;12.53;;;;;;;4.85;100.00;100491.25;5101979;28;20263;-30
2020/12/02 10:23:49;;;;;;;16.37;11.03;;;;;;;4.70;100.00;100484.16;5100588;28;20251;-29
2020/12/02 10:26:56;;;;;;;17.63;11.50;;;;;;;4.73;100.00;100484.22;5100533;28;20221;-30
2020/12/02 10:30:11;;;;;;;17.27;11.97;;;;;;;4.76;100.00;100479.16;5099491;28;20204;-30
2020/12/02 10:33:19;;;;;;;16.20;11.23;;;;;;;4.96;100.00;100465.84;5104457;28;20206;-30
2020/12/02 10:36:06;;;;;;;17.17;11.33;;;;;;;4.82;100.00;100461.31;5100065;28;20248;-30
2020/12/02 10:38:55;;;;;;;17.07;10.97;;;;;;;4.87;100.00;100453.72;5099797;28;20198;-30
2020/12/02 10:41:52;;;;;;;15.27;11.20;;;;;;;4.97;100.00;100452.19;5098994;28;20260;-30
2020/12/02 10:44:52;;;;;;;16.30;11.10;;;;;;;5.12;100.00;100437.91;5099177;28;20484;-30
2020/12/02 10:48:11;;;;;;;18.00;12.33;;;;;;;5.22;100.00;100438.91;5098908;28;20243;-30
2020/12/02 10:50:58;;;;;;;17.63;10.97;;;;;;;5.05;100.00;100427.50;5101178;28;20223;-30
2020/12/02 10:53:48;;;;;;;17.00;10.93;;;;;;;5.05;100.00;100425.81;5099997;28;20195;-30
2020/12/02 10:56:38;;;;;;;16.80;10.80;;;;;;;5.08;100.00;100422.44;5099111;28;20249;-30
2020/12/02 10:59:27;;;;;;;17.73;10.53;;;;;;;5.11;100.00;100407.97;5099548;28;20265;-30
2020/12/02 11:02:18;;;;;;;16.17;10.90;;;;;;;5.31;100.00;100403.16;5099746;28;20602;-30
2020/12/02 11:05:07;;;;;;;13.17;10.23;;;;;;;5.16;100.00;100401.22;5099651;28;20191;-31
2020/12/02 11:08:01;;;;;;;13.87;10.13;;;;;;;5.33;100.00;100400.59;5100361;28;20540;-31
2020/12/02 11:11:03;;;;;;;14.40;9.90;;;;;;;5.49;100.00;100393.16;5099535;28;20199;-31
2020/12/02 11:14:04;;;;;;;13.67;9.40;;;;;;;5.34;100.00;100392.94;5100007;28;20308;-30
2020/12/02 11:17:03;;;;;;;17.53;12.63;;;;;;;5.32;100.00;100396.31;5099036;28;20586;-30
2020/12/02 11:19:53;;;;;;;13.00;9.63;;;;;;;5.36;100.00;100382.72;5099329;28;20322;-30
2020/12/02 11:23:03;;;;;;;12.10;9.10;;;;;;;5.17;100.00;100390.13;5098710;28;20261;-30
2020/12/02 11:25:58;;;;;;;12.60;9.83;;;;;;;5.44;100.00;100375.97;5098246;28;20352;-30
2020/12/02 11:28:47;;;;;;;12.87;9.70;;;;;;;5.19;100.00;100378.19;5100146;28;20199;-30
2020/12/02 11:32:23;;;;;;;13.50;9.77;;;;;;;5.46;100.00;100375.16;5098988;28;20678;-31
2020/12/02 11:35:46;;;;;;;14.90;10.30;;;;;;;5.42;100.00;100372.50;5098486;28;20199;-30
2020/12/02 11:38:37;;;;;;;15.47;10.87;;;;;;;5.47;100.00;100355.47;5099262;28;20206;-30
2020/12/02 11:41:31;;;;;;;15.47;10.17;;;;;;;5.72;100.00;100348.97;5098794;28;20203;-30
2020/12/02 11:44:29;;;;;;;13.03;9.50;;;;;;;5.43;100.00;100349.44;5098819;28;20195;-30
2020/12/02 11:47:27;;;;;;;14.07;9.47;;;;;;;5.71;100.00;100352.38;5098987;28;20246;-30
2020/12/02 11:50:20;;;;;;;16.67;9.80;;;;;;;5.61;100.00;100351.38;5098852;28;20245;-30
2020/12/02 11:53:23;;;;;;;13.40;9.30;;;;;;;5.28;100.00;100348.38;5098941;28;20199;-31
2020/12/02 11:56:12;;;;;;;12.73;9.87;;;;;;;5.57;100.00;100351.34;5089496;28;20196;-30
2020/12/02 11:59:01;;;;;;;13.83;9.30;;;;;;;5.39;100.00;100354.53;5099275;28;20198;-30
2020/12/02 12:01:57;;;;;;;11.20;8.87;;;;;;;5.31;100.00;100345.88;5098917;28;20191;-31
2020/12/02 12:04:57;;;;;;;12.43;9.13;;;;;;;5.31;100.00;100341.59;5098939;28;20257;-30
2020/12/02 12:07:53;;;;;;;18.07;9.87;;;;;;;5.39;100.00;100340.00;5098774;28;20254;-30
2020/12/02 12:10:44;;;;;;;12.73;10.00;;;;;;;5.60;100.00;100341.97;5098298;28;20287;-30
2020/12/02 12:13:36;;;;;;;16.33;10.07;;;;;;;5.53;100.00;100327.34;5098398;28;20203;-31
2020/12/02 12:16:38;;;;;;;14.30;10.70;;;;;;;5.62;100.00;100324.88;5096582;28;20625;-30
2020/12/02 12:19:41;;;;;;;12.77;10.20;;;;;;;5.65;100.00;100327.50;5097789;28;20292;-30
2020/12/02 12:22:41;;;;;;;14.03;10.20;;;;;;;5.66;100.00;100320.66;5097694;28;20195;-31
2020/12/02 12:25:35;;;;;;;12.27;9.73;;;;;;;5.42;100.00;100308.38;5077630;28;20214;-32
2020/12/02 12:28:30;;;;;;;15.43;10.33;;;;;;;5.49;100.00;100307.63;5077392;28;20238;-30
2020/12/02 12:31:24;;;;;;;14.60;9.23;;;;;;;5.56;100.00;100296.59;5077223;28;20231;-30
2020/12/02 12:34:23;;;;;;;13.93;10.03;;;;;;;5.48;100.00;100300.78;5077712;28;20595;-30
2020/12/02 12:37:16;;;;;;;14.13;9.90;;;;;;;5.54;100.00;100290.59;5077535;28;20467;-31
2020/12/02 12:40:07;;;;;;;13.30;10.00;;;;;;;5.73;100.00;100289.97;5077676;28;20251;-31
2020/12/02 12:42:54;;;;;;;14.40;10.33;;;;;;;5.49;100.00;100290.53;5077520;28;20633;-31
2020/12/02 12:45:45;;;;;;;13.77;10.90;;;;;;;5.63;100.00;100279.56;5077407;28;20254;-31
2020/12/02 12:48:34;;;;;;;15.87;10.87;;;;;;;5.94;100.00;100279.09;5076988;28;20605;-31
2020/12/02 12:51:29;;;;;;;13.60;9.63;;;;;;;5.64;100.00;100279.56;5076798;28;20235;-31
2020/12/02 12:54:19;;;;;;;13.80;9.63;;;;;;;5.44;100.00;100269.09;5077086;28;20255;-31
2020/12/02 12:57:08;;;;;;;14.10;10.87;;;;;;;5.50;100.00;100278.56;5077397;28;20257;-31